sensor_id;sensor_type;location;lat;lon;timestamp;P1;durP1;ratioP1;P2;durP2;ratioP2
1613;SDS011;800;48.824;9.346;2022-11-15T00:01:01;4.33;;;3.83;;
1613;SDS011;800;48.824;9.346;2022-11-15T00:03:30;5.33;;;3.70;;
1613;SDS011;800;48.824;9.346;2022-11-15T00:06:00;4.70;;;4.23;;
1613;SDS011;800;48.824;9.346;2022-11-15T00:08:28;4.23;;;3.80;;
1613;SDS011;800;48.824;9.346;2022-11-15T00:10:58;4.53;;;4.13;;
1613;SDS011;800;48.824;9.346;2022-11-15T00:13:25;5.07;;;4.67;;
1613;SDS011;800;48.824;9.346;2022-11-15T00:15:51;7.20;;;4.77;;
1613;SDS011;800;48.824;9.346;2022-11-15T00:18:17;6.67;;;4.60;;
1613;SDS011;800;48.824;9.346;2022-11-15T00:20:43;5.07;;;4.57;;
1613;SDS011;800;48.824;9.346;2022-11-15T00:23:09;9.67;;;5.83;;
1613;SDS011;800;48.824;9.346;2022-11-15T00:25:35;6.37;;;5.73;;
1613;SDS011;800;48.824;9.346;2022-11-15T00:28:01;6.57;;;5.70;;
1613;SDS011;800;48.824;9.346;2022-11-15T00:30:27;8.00;;;6.07;;
1613;SDS011;800;48.824;9.346;2022-11-15T00:32:53;6.07;;;5.37;;
1613;SDS011;800;48.824;9.346;2022-11-15T00:35:19;5.60;;;5.00;;
1613;SDS011;800;48.824;9.346;2022-11-15T00:37:45;6.23;;;5.50;;
1613;SDS011;800;48.824;9.346;2022-11-15T00:40:12;6.50;;;5.03;;
1613;SDS011;800;48.824;9.346;2022-11-15T00:42:38;6.50;;;4.70;;
1613;SDS011;800;48.824;9.346;2022-11-15T00:45:05;5.30;;;4.80;;
1613;SDS011;800;48.824;9.346;2022-11-15T00:47:31;4.47;;;4.03;;
1613;SDS011;800;48.824;9.346;2022-11-15T00:49:56;5.20;;;4.77;;
1613;SDS011;800;48.824;9.346;2022-11-15T00:52:22;3.97;;;3.57;;
1613;SDS011;800;48.824;9.346;2022-11-15T00:54:48;5.97;;;4.30;;
1613;SDS011;800;48.824;9.346;2022-11-15T00:57:13;6.20;;;4.30;;
1613;SDS011;800;48.824;9.346;2022-11-15T00:59:39;4.33;;;3.93;;
1613;SDS011;800;48.824;9.346;2022-11-15T01:02:05;4.63;;;4.20;;
1613;SDS011;800;48.824;9.346;2022-11-15T01:04:30;4.30;;;3.50;;
1613;SDS011;800;48.824;9.346;2022-11-15T01:06:56;4.30;;;3.90;;
1613;SDS011;800;48.824;9.346;2022-11-15T01:09:21;6.83;;;3.90;;
1613;SDS011;800;48.824;9.346;2022-11-15T01:11:47;5.70;;;3.90;;
1613;SDS011;800;48.824;9.346;2022-11-15T01:14:13;4.53;;;3.60;;
1613;SDS011;800;48.824;9.346;2022-11-15T01:16:38;4.40;;;3.60;;
1613;SDS011;800;48.824;9.346;2022-11-15T01:19:04;4.43;;;3.77;;
1613;SDS011;800;48.824;9.346;2022-11-15T01:21:30;4.97;;;4.27;;
1613;SDS011;800;48.824;9.346;2022-11-15T01:23:56;4.00;;;3.53;;
1613;SDS011;800;48.824;9.346;2022-11-15T01:26:22;5.00;;;4.10;;
1613;SDS011;800;48.824;9.346;2022-11-15T01:28:49;5.17;;;4.67;;
1613;SDS011;800;48.824;9.346;2022-11-15T01:31:16;9.17;;;5.27;;
1613;SDS011;800;48.824;9.346;2022-11-15T01:33:44;6.50;;;5.03;;
1613;SDS011;800;48.824;9.346;2022-11-15T01:36:11;8.60;;;5.37;;
1613;SDS011;800;48.824;9.346;2022-11-15T01:38:40;8.80;;;5.50;;
1613;SDS011;800;48.824;9.346;2022-11-15T01:41:06;7.20;;;5.30;;
1613;SDS011;800;48.824;9.346;2022-11-15T01:43:38;7.93;;;5.83;;
1613;SDS011;800;48.824;9.346;2022-11-15T01:48:52;6.60;;;5.00;;
1613;SDS011;800;48.824;9.346;2022-11-15T01:51:20;6.47;;;4.87;;
1613;SDS011;800;48.824;9.346;2022-11-15T01:53:49;6.20;;;4.80;;
1613;SDS011;800;48.824;9.346;2022-11-15T01:56:20;5.30;;;4.50;;
1613;SDS011;800;48.824;9.346;2022-11-15T01:58:50;5.60;;;4.50;;
1613;SDS011;800;48.824;9.346;2022-11-15T02:01:18;6.87;;;5.40;;
1613;SDS011;800;48.824;9.346;2022-11-15T02:03:52;4.80;;;4.30;;
1613;SDS011;800;48.824;9.346;2022-11-15T02:06:32;7.67;;;4.27;;
1613;SDS011;800;48.824;9.346;2022-11-15T02:08:59;5.60;;;4.50;;
1613;SDS011;800;48.824;9.346;2022-11-15T02:11:25;6.70;;;4.70;;
1613;SDS011;800;48.824;9.346;2022-11-15T02:13:51;6.53;;;4.80;;
1613;SDS011;800;48.824;9.346;2022-11-15T02:28:03;6.80;;;6.20;;
1613;SDS011;800;48.824;9.346;2022-11-15T02:40:28;6.93;;;5.33;;
1613;SDS011;800;48.824;9.346;2022-11-15T02:43:10;6.70;;;5.60;;
1613;SDS011;800;48.824;9.346;2022-11-15T02:46:09;5.37;;;4.97;;
1613;SDS011;800;48.824;9.346;2022-11-15T02:48:44;7.80;;;6.00;;
1613;SDS011;800;48.824;9.346;2022-11-15T02:51:11;5.80;;;5.30;;
1613;SDS011;800;48.824;9.346;2022-11-15T02:53:38;5.40;;;4.90;;
1613;SDS011;800;48.824;9.346;2022-11-15T02:56:03;7.47;;;5.67;;
1613;SDS011;800;48.824;9.346;2022-11-15T03:04:12;6.40;;;4.23;;
1613;SDS011;800;48.824;9.346;2022-11-15T03:06:48;5.07;;;4.57;;
1613;SDS011;800;48.824;9.346;2022-11-15T03:09:24;10.00;;;6.73;;
1613;SDS011;800;48.824;9.346;2022-11-15T03:12:03;7.40;;;5.80;;
1613;SDS011;800;48.824;9.346;2022-11-15T03:14:47;8.33;;;5.67;;
1613;SDS011;800;48.824;9.346;2022-11-15T03:19:59;6.10;;;4.80;;
1613;SDS011;800;48.824;9.346;2022-11-15T03:22:27;7.27;;;4.63;;
1613;SDS011;800;48.824;9.346;2022-11-15T03:25:00;5.90;;;4.63;;
1613;SDS011;800;48.824;9.346;2022-11-15T03:27:30;8.97;;;5.00;;
1613;SDS011;800;48.824;9.346;2022-11-15T03:30:00;6.67;;;4.97;;
1613;SDS011;800;48.824;9.346;2022-11-15T03:32:35;7.00;;;4.77;;
1613;SDS011;800;48.824;9.346;2022-11-15T03:35:06;4.53;;;4.10;;
1613;SDS011;800;48.824;9.346;2022-11-15T03:37:37;5.73;;;4.87;;
1613;SDS011;800;48.824;9.346;2022-11-15T03:40:11;6.13;;;5.53;;
1613;SDS011;800;48.824;9.346;2022-11-15T03:42:46;6.03;;;5.50;;
1613;SDS011;800;48.824;9.346;2022-11-15T03:45:26;6.17;;;5.57;;
1613;SDS011;800;48.824;9.346;2022-11-15T03:48:03;5.70;;;5.10;;
1613;SDS011;800;48.824;9.346;2022-11-15T03:50:35;8.20;;;4.83;;
1613;SDS011;800;48.824;9.346;2022-11-15T03:53:02;7.17;;;4.57;;
1613;SDS011;800;48.824;9.346;2022-11-15T03:55:27;6.93;;;5.27;;
1613;SDS011;800;48.824;9.346;2022-11-15T03:57:54;6.10;;;5.50;;
1613;SDS011;800;48.824;9.346;2022-11-15T04:00:22;9.00;;;5.53;;
1613;SDS011;800;48.824;9.346;2022-11-15T04:02:48;7.47;;;5.10;;
1613;SDS011;800;48.824;9.346;2022-11-15T04:05:14;6.90;;;4.63;;
1613;SDS011;800;48.824;9.346;2022-11-15T04:07:39;5.80;;;4.30;;
1613;SDS011;800;48.824;9.346;2022-11-15T04:10:05;6.13;;;4.80;;
1613;SDS011;800;48.824;9.346;2022-11-15T04:12:32;6.80;;;4.90;;
1613;SDS011;800;48.824;9.346;2022-11-15T04:15:06;7.37;;;4.93;;
1613;SDS011;800;48.824;9.346;2022-11-15T04:17:34;6.03;;;4.80;;
1613;SDS011;800;48.824;9.346;2022-11-15T04:20:29;7.83;;;4.40;;
1613;SDS011;800;48.824;9.346;2022-11-15T04:23:16;4.57;;;4.17;;
1613;SDS011;800;48.824;9.346;2022-11-15T04:26:05;6.30;;;4.40;;
1613;SDS011;800;48.824;9.346;2022-11-15T04:28:36;6.37;;;4.80;;
1613;SDS011;800;48.824;9.346;2022-11-15T04:31:25;7.20;;;4.53;;
1613;SDS011;800;48.824;9.346;2022-11-15T04:33:51;5.67;;;5.00;;
1613;SDS011;800;48.824;9.346;2022-11-15T04:36:17;5.73;;;3.90;;
1613;SDS011;800;48.824;9.346;2022-11-15T04:39:02;5.17;;;4.67;;
1613;SDS011;800;48.824;9.346;2022-11-15T04:41:28;5.30;;;4.73;;
1613;SDS011;800;48.824;9.346;2022-11-15T04:43:54;5.40;;;4.53;;
1613;SDS011;800;48.824;9.346;2022-11-15T04:46:20;4.30;;;4.00;;
1613;SDS011;800;48.824;9.346;2022-11-15T04:48:46;7.03;;;4.63;;
1613;SDS011;800;48.824;9.346;2022-11-15T04:51:12;7.90;;;4.60;;
1613;SDS011;800;48.824;9.346;2022-11-15T04:53:37;5.03;;;4.47;;
1613;SDS011;800;48.824;9.346;2022-11-15T04:56:03;7.97;;;7.17;;
1613;SDS011;800;48.824;9.346;2022-11-15T04:58:29;7.60;;;5.53;;
1613;SDS011;800;48.824;9.346;2022-11-15T05:00:54;7.03;;;6.33;;
1613;SDS011;800;48.824;9.346;2022-11-15T05:03:20;5.23;;;4.00;;
1613;SDS011;800;48.824;9.346;2022-11-15T05:06:04;5.20;;;4.70;;
1613;SDS011;800;48.824;9.346;2022-11-15T05:08:30;4.50;;;4.10;;
1613;SDS011;800;48.824;9.346;2022-11-15T05:10:56;7.50;;;5.87;;
1613;SDS011;800;48.824;9.346;2022-11-15T05:13:21;5.37;;;4.87;;
1613;SDS011;800;48.824;9.346;2022-11-15T05:15:47;6.13;;;4.10;;
1613;SDS011;800;48.824;9.346;2022-11-15T05:18:12;5.73;;;5.23;;
1613;SDS011;800;48.824;9.346;2022-11-15T05:20:38;6.17;;;4.57;;
1613;SDS011;800;48.824;9.346;2022-11-15T05:23:04;4.60;;;4.00;;
1613;SDS011;800;48.824;9.346;2022-11-15T05:25:29;5.03;;;4.60;;
1613;SDS011;800;48.824;9.346;2022-11-15T05:27:55;6.50;;;5.30;;
1613;SDS011;800;48.824;9.346;2022-11-15T05:30:21;7.50;;;6.27;;
1613;SDS011;800;48.824;9.346;2022-11-15T05:32:46;5.77;;;4.63;;
1613;SDS011;800;48.824;9.346;2022-11-15T05:35:13;6.53;;;4.40;;
1613;SDS011;800;48.824;9.346;2022-11-15T05:37:44;5.73;;;5.20;;
1613;SDS011;800;48.824;9.346;2022-11-15T05:40:11;5.43;;;4.80;;
1613;SDS011;800;48.824;9.346;2022-11-15T05:42:36;8.83;;;5.30;;
1613;SDS011;800;48.824;9.346;2022-11-15T05:45:03;4.37;;;3.97;;
1613;SDS011;800;48.824;9.346;2022-11-15T05:47:31;6.57;;;3.70;;
1613;SDS011;800;48.824;9.346;2022-11-15T05:49:58;7.60;;;3.90;;
1613;SDS011;800;48.824;9.346;2022-11-15T05:52:25;4.63;;;3.63;;
1613;SDS011;800;48.824;9.346;2022-11-15T05:54:56;7.90;;;3.87;;
1613;SDS011;800;48.824;9.346;2022-11-15T05:57:23;3.60;;;3.30;;
1613;SDS011;800;48.824;9.346;2022-11-15T05:59:49;5.43;;;3.37;;
1613;SDS011;800;48.824;9.346;2022-11-15T06:02:15;7.30;;;4.77;;
1613;SDS011;800;48.824;9.346;2022-11-15T06:04:41;15.17;;;7.07;;
1613;SDS011;800;48.824;9.346;2022-11-15T06:07:07;7.67;;;6.30;;
1613;SDS011;800;48.824;9.346;2022-11-15T06:09:32;8.83;;;6.97;;
1613;SDS011;800;48.824;9.346;2022-11-15T06:11:58;11.13;;;5.37;;
1613;SDS011;800;48.824;9.346;2022-11-15T06:14:23;6.40;;;4.60;;
1613;SDS011;800;48.824;9.346;2022-11-15T06:16:49;8.27;;;4.63;;
1613;SDS011;800;48.824;9.346;2022-11-15T06:19:14;5.10;;;4.30;;
1613;SDS011;800;48.824;9.346;2022-11-15T06:21:40;6.57;;;4.57;;
1613;SDS011;800;48.824;9.346;2022-11-15T06:24:06;7.37;;;4.80;;
1613;SDS011;800;48.824;9.346;2022-11-15T06:26:32;6.53;;;4.83;;
1613;SDS011;800;48.824;9.346;2022-11-15T06:28:57;7.90;;;4.73;;
1613;SDS011;800;48.824;9.346;2022-11-15T06:31:23;6.80;;;5.13;;
1613;SDS011;800;48.824;9.346;2022-11-15T06:33:48;4.83;;;4.00;;
1613;SDS011;800;48.824;9.346;2022-11-15T06:36:14;5.40;;;4.33;;
1613;SDS011;800;48.824;9.346;2022-11-15T06:38:41;3.87;;;3.50;;
1613;SDS011;800;48.824;9.346;2022-11-15T06:41:08;4.70;;;3.97;;
1613;SDS011;800;48.824;9.346;2022-11-15T06:43:35;3.90;;;3.43;;
1613;SDS011;800;48.824;9.346;2022-11-15T06:46:02;4.17;;;3.40;;
1613;SDS011;800;48.824;9.346;2022-11-15T06:48:29;6.00;;;4.40;;
1613;SDS011;800;48.824;9.346;2022-11-15T06:50:56;6.27;;;4.97;;
1613;SDS011;800;48.824;9.346;2022-11-15T06:53:24;5.90;;;4.23;;
1613;SDS011;800;48.824;9.346;2022-11-15T06:55:50;8.00;;;4.60;;
1613;SDS011;800;48.824;9.346;2022-11-15T06:58:16;5.00;;;4.53;;
1613;SDS011;800;48.824;9.346;2022-11-15T07:00:41;6.23;;;4.77;;
1613;SDS011;800;48.824;9.346;2022-11-15T07:03:08;6.63;;;5.10;;
1613;SDS011;800;48.824;9.346;2022-11-15T07:05:34;5.87;;;4.20;;
1613;SDS011;800;48.824;9.346;2022-11-15T07:08:00;8.40;;;5.13;;
1613;SDS011;800;48.824;9.346;2022-11-15T07:10:26;6.83;;;5.30;;
1613;SDS011;800;48.824;9.346;2022-11-15T07:12:52;6.20;;;4.60;;
1613;SDS011;800;48.824;9.346;2022-11-15T07:15:20;7.47;;;5.23;;
1613;SDS011;800;48.824;9.346;2022-11-15T07:17:47;5.37;;;4.57;;
1613;SDS011;800;48.824;9.346;2022-11-15T07:20:15;6.13;;;4.97;;
1613;SDS011;800;48.824;9.346;2022-11-15T07:22:42;5.90;;;5.13;;
1613;SDS011;800;48.824;9.346;2022-11-15T07:25:10;5.00;;;4.13;;
1613;SDS011;800;48.824;9.346;2022-11-15T07:27:35;10.87;;;4.57;;
1613;SDS011;800;48.824;9.346;2022-11-15T07:30:01;5.27;;;4.50;;
1613;SDS011;800;48.824;9.346;2022-11-15T07:32:28;8.60;;;6.57;;
1613;SDS011;800;48.824;9.346;2022-11-15T07:34:54;8.63;;;4.70;;
1613;SDS011;800;48.824;9.346;2022-11-15T07:37:19;6.53;;;4.60;;
1613;SDS011;800;48.824;9.346;2022-11-15T07:39:45;7.00;;;4.60;;
1613;SDS011;800;48.824;9.346;2022-11-15T07:42:11;10.23;;;5.23;;
1613;SDS011;800;48.824;9.346;2022-11-15T07:44:55;6.40;;;5.20;;
1613;SDS011;800;48.824;9.346;2022-11-15T07:47:20;5.73;;;4.00;;
1613;SDS011;800;48.824;9.346;2022-11-15T07:49:46;7.10;;;4.50;;
1613;SDS011;800;48.824;9.346;2022-11-15T07:52:12;5.70;;;4.20;;
1613;SDS011;800;48.824;9.346;2022-11-15T07:54:38;6.43;;;4.50;;
1613;SDS011;800;48.824;9.346;2022-11-15T07:57:04;8.67;;;4.57;;
1613;SDS011;800;48.824;9.346;2022-11-15T07:59:31;4.43;;;3.97;;
1613;SDS011;800;48.824;9.346;2022-11-15T08:01:57;9.23;;;5.03;;
1613;SDS011;800;48.824;9.346;2022-11-15T08:04:23;5.83;;;4.03;;
1613;SDS011;800;48.824;9.346;2022-11-15T08:06:48;3.43;;;3.13;;
1613;SDS011;800;48.824;9.346;2022-11-15T08:09:14;6.43;;;3.80;;
1613;SDS011;800;48.824;9.346;2022-11-15T08:11:39;4.97;;;4.13;;
1613;SDS011;800;48.824;9.346;2022-11-15T08:14:05;5.00;;;4.27;;
1613;SDS011;800;48.824;9.346;2022-11-15T08:16:30;5.07;;;4.20;;
1613;SDS011;800;48.824;9.346;2022-11-15T08:18:57;9.93;;;5.13;;
1613;SDS011;800;48.824;9.346;2022-11-15T08:21:22;7.60;;;4.40;;
1613;SDS011;800;48.824;9.346;2022-11-15T08:23:48;7.70;;;3.83;;
1613;SDS011;800;48.824;9.346;2022-11-15T08:26:14;11.63;;;4.77;;
1613;SDS011;800;48.824;9.346;2022-11-15T08:28:39;5.63;;;4.47;;
1613;SDS011;800;48.824;9.346;2022-11-15T08:31:05;6.00;;;4.43;;
1613;SDS011;800;48.824;9.346;2022-11-15T08:33:31;5.67;;;5.07;;
1613;SDS011;800;48.824;9.346;2022-11-15T08:36:01;7.43;;;4.90;;
1613;SDS011;800;48.824;9.346;2022-11-15T08:38:26;9.93;;;5.63;;
1613;SDS011;800;48.824;9.346;2022-11-15T08:40:54;9.87;;;5.83;;
1613;SDS011;800;48.824;9.346;2022-11-15T08:43:28;8.50;;;5.70;;
1613;SDS011;800;48.824;9.346;2022-11-15T08:45:57;8.60;;;5.20;;
1613;SDS011;800;48.824;9.346;2022-11-15T08:48:23;8.03;;;5.40;;
1613;SDS011;800;48.824;9.346;2022-11-15T08:50:48;10.33;;;5.80;;
1613;SDS011;800;48.824;9.346;2022-11-15T08:53:17;8.40;;;5.30;;
1613;SDS011;800;48.824;9.346;2022-11-15T08:55:43;6.70;;;4.53;;
1613;SDS011;800;48.824;9.346;2022-11-15T08:58:09;4.77;;;4.30;;
1613;SDS011;800;48.824;9.346;2022-11-15T09:00:34;5.27;;;4.70;;
1613;SDS011;800;48.824;9.346;2022-11-15T09:03:01;6.57;;;4.87;;
1613;SDS011;800;48.824;9.346;2022-11-15T09:05:29;5.83;;;4.57;;
1613;SDS011;800;48.824;9.346;2022-11-15T09:07:55;5.70;;;4.60;;
1613;SDS011;800;48.824;9.346;2022-11-15T09:10:21;4.97;;;4.50;;
1613;SDS011;800;48.824;9.346;2022-11-15T09:12:47;4.87;;;4.30;;
1613;SDS011;800;48.824;9.346;2022-11-15T09:15:13;3.63;;;3.33;;
1613;SDS011;800;48.824;9.346;2022-11-15T09:17:39;4.60;;;4.20;;
1613;SDS011;800;48.824;9.346;2022-11-15T09:20:05;4.50;;;4.03;;
1613;SDS011;800;48.824;9.346;2022-11-15T09:22:31;4.20;;;3.87;;
1613;SDS011;800;48.824;9.346;2022-11-15T09:24:57;5.77;;;4.07;;
1613;SDS011;800;48.824;9.346;2022-11-15T09:27:22;4.30;;;3.70;;
1613;SDS011;800;48.824;9.346;2022-11-15T09:29:52;4.30;;;3.67;;
1613;SDS011;800;48.824;9.346;2022-11-15T09:32:17;5.03;;;3.90;;
1613;SDS011;800;48.824;9.346;2022-11-15T09:34:43;6.20;;;4.20;;
1613;SDS011;800;48.824;9.346;2022-11-15T09:37:08;4.97;;;4.47;;
1613;SDS011;800;48.824;9.346;2022-11-15T09:39:34;7.10;;;4.63;;
1613;SDS011;800;48.824;9.346;2022-11-15T09:44:38;5.27;;;4.67;;
1613;SDS011;800;48.824;9.346;2022-11-15T09:49:51;4.63;;;4.20;;
1613;SDS011;800;48.824;9.346;2022-11-15T09:52:18;6.37;;;4.70;;
1613;SDS011;800;48.824;9.346;2022-11-15T09:54:47;6.57;;;4.87;;
1613;SDS011;800;48.824;9.346;2022-11-15T10:00:21;5.17;;;4.00;;
1613;SDS011;800;48.824;9.346;2022-11-15T10:05:48;5.93;;;4.77;;
1613;SDS011;800;48.824;9.346;2022-11-15T10:11:07;4.17;;;3.70;;
1613;SDS011;800;48.824;9.346;2022-11-15T10:13:36;5.53;;;4.13;;
1613;SDS011;800;48.824;9.346;2022-11-15T10:18:56;5.70;;;3.80;;
1613;SDS011;800;48.824;9.346;2022-11-15T10:24:25;3.63;;;3.30;;
1613;SDS011;800;48.824;9.346;2022-11-15T10:26:54;4.10;;;3.47;;
1613;SDS011;800;48.824;9.346;2022-11-15T10:29:21;4.20;;;2.83;;
1613;SDS011;800;48.824;9.346;2022-11-15T10:31:48;4.17;;;3.40;;
1613;SDS011;800;48.824;9.346;2022-11-15T10:34:15;3.70;;;3.40;;
1613;SDS011;800;48.824;9.346;2022-11-15T10:36:53;3.30;;;3.00;;
1613;SDS011;800;48.824;9.346;2022-11-15T10:39:21;11.83;;;3.60;;
1613;SDS011;800;48.824;9.346;2022-11-15T10:41:46;5.53;;;3.37;;
1613;SDS011;800;48.824;9.346;2022-11-15T10:47:03;2.80;;;2.53;;
1613;SDS011;800;48.824;9.346;2022-11-15T10:49:32;3.37;;;3.07;;
1613;SDS011;800;48.824;9.346;2022-11-15T10:52:03;3.80;;;2.70;;
1613;SDS011;800;48.824;9.346;2022-11-15T10:54:44;2.77;;;2.20;;
1613;SDS011;800;48.824;9.346;2022-11-15T10:57:14;6.83;;;3.30;;
1613;SDS011;800;48.824;9.346;2022-11-15T10:59:53;5.40;;;2.80;;
1613;SDS011;800;48.824;9.346;2022-11-15T11:02:26;6.73;;;2.73;;
1613;SDS011;800;48.824;9.346;2022-11-15T11:04:55;4.70;;;2.80;;
1613;SDS011;800;48.824;9.346;2022-11-15T11:07:31;4.20;;;2.77;;
1613;SDS011;800;48.824;9.346;2022-11-15T11:09:59;3.10;;;2.80;;
1613;SDS011;800;48.824;9.346;2022-11-15T11:12:29;5.50;;;3.40;;
1613;SDS011;800;48.824;9.346;2022-11-15T11:14:59;4.40;;;3.00;;
1613;SDS011;800;48.824;9.346;2022-11-15T11:31:11;4.40;;;3.00;;
1613;SDS011;800;48.824;9.346;2022-11-15T11:34:00;3.13;;;2.50;;
1613;SDS011;800;48.824;9.346;2022-11-15T11:36:55;2.97;;;2.77;;
1613;SDS011;800;48.824;9.346;2022-11-15T11:39:48;5.13;;;3.10;;
1613;SDS011;800;48.824;9.346;2022-11-15T11:42:44;4.30;;;2.73;;
1613;SDS011;800;48.824;9.346;2022-11-15T11:50:36;5.00;;;3.17;;
1613;SDS011;800;48.824;9.346;2022-11-15T11:53:04;6.10;;;3.60;;
1613;SDS011;800;48.824;9.346;2022-11-15T11:55:40;4.47;;;2.73;;
1613;SDS011;800;48.824;9.346;2022-11-15T12:00:53;2.77;;;2.50;;
1613;SDS011;800;48.824;9.346;2022-11-15T12:03:44;3.33;;;2.70;;
1613;SDS011;800;48.824;9.346;2022-11-15T12:07:00;4.73;;;2.87;;
1613;SDS011;800;48.824;9.346;2022-11-15T12:09:26;8.77;;;3.30;;
1613;SDS011;800;48.824;9.346;2022-11-15T12:12:02;7.47;;;3.07;;
1613;SDS011;800;48.824;9.346;2022-11-15T12:17:10;4.20;;;2.87;;
1613;SDS011;800;48.824;9.346;2022-11-15T12:19:37;6.33;;;3.10;;
1613;SDS011;800;48.824;9.346;2022-11-15T12:24:39;5.53;;;3.90;;
1613;SDS011;800;48.824;9.346;2022-11-15T12:27:20;4.30;;;3.00;;
1613;SDS011;800;48.824;9.346;2022-11-15T12:29:56;4.07;;;3.17;;
1613;SDS011;800;48.824;9.346;2022-11-15T12:32:34;3.03;;;2.73;;
1613;SDS011;800;48.824;9.346;2022-11-15T12:35:03;8.87;;;3.63;;
1613;SDS011;800;48.824;9.346;2022-11-15T12:45:27;4.30;;;3.20;;
1613;SDS011;800;48.824;9.346;2022-11-15T12:47:53;6.23;;;3.20;;
1613;SDS011;800;48.824;9.346;2022-11-15T13:01:08;4.63;;;3.37;;
1613;SDS011;800;48.824;9.346;2022-11-15T13:03:35;7.20;;;4.03;;
1613;SDS011;800;48.824;9.346;2022-11-15T13:06:34;3.43;;;3.13;;
1613;SDS011;800;48.824;9.346;2022-11-15T13:17:17;2.87;;;2.53;;
1613;SDS011;800;48.824;9.346;2022-11-15T13:30:40;6.47;;;3.70;;
1613;SDS011;800;48.824;9.346;2022-11-15T13:33:18;5.80;;;3.70;;
1613;SDS011;800;48.824;9.346;2022-11-15T13:35:48;7.50;;;4.53;;
1613;SDS011;800;48.824;9.346;2022-11-15T13:38:25;4.97;;;3.40;;
1613;SDS011;800;48.824;9.346;2022-11-15T13:40:59;4.10;;;3.30;;
1613;SDS011;800;48.824;9.346;2022-11-15T13:43:41;3.93;;;2.90;;
1613;SDS011;800;48.824;9.346;2022-11-15T13:46:11;4.27;;;2.43;;
1613;SDS011;800;48.824;9.346;2022-11-15T13:48:37;3.33;;;2.30;;
1613;SDS011;800;48.824;9.346;2022-11-15T13:51:05;6.30;;;3.10;;
1613;SDS011;800;48.824;9.346;2022-11-15T13:53:46;4.47;;;3.20;;
1613;SDS011;800;48.824;9.346;2022-11-15T13:56:19;5.00;;;3.13;;
1613;SDS011;800;48.824;9.346;2022-11-15T13:58:45;8.13;;;3.77;;
1613;SDS011;800;48.824;9.346;2022-11-15T14:01:15;3.33;;;2.70;;
1613;SDS011;800;48.824;9.346;2022-11-15T14:03:49;2.90;;;2.33;;
1613;SDS011;800;48.824;9.346;2022-11-15T14:06:19;2.90;;;2.40;;
1613;SDS011;800;48.824;9.346;2022-11-15T14:11:32;3.87;;;2.90;;
1613;SDS011;800;48.824;9.346;2022-11-15T14:14:19;4.17;;;2.93;;
1613;SDS011;800;48.824;9.346;2022-11-15T14:16:45;11.00;;;2.80;;
1613;SDS011;800;48.824;9.346;2022-11-15T14:24:33;4.90;;;3.10;;
1613;SDS011;800;48.824;9.346;2022-11-15T14:27:15;3.20;;;2.90;;
1613;SDS011;800;48.824;9.346;2022-11-15T14:29:51;2.80;;;2.60;;
1613;SDS011;800;48.824;9.346;2022-11-15T14:32:21;3.90;;;2.90;;
1613;SDS011;800;48.824;9.346;2022-11-15T14:34:53;3.93;;;2.87;;
1613;SDS011;800;48.824;9.346;2022-11-15T14:37:32;3.20;;;2.90;;
1613;SDS011;800;48.824;9.346;2022-11-15T14:40:00;3.83;;;3.43;;
1613;SDS011;800;48.824;9.346;2022-11-15T14:42:27;4.47;;;3.60;;
1613;SDS011;800;48.824;9.346;2022-11-15T14:44:53;3.73;;;3.43;;
1613;SDS011;800;48.824;9.346;2022-11-15T14:47:19;10.67;;;5.83;;
1613;SDS011;800;48.824;9.346;2022-11-15T14:49:45;4.90;;;4.03;;
1613;SDS011;800;48.824;9.346;2022-11-15T14:52:30;5.20;;;3.40;;
1613;SDS011;800;48.824;9.346;2022-11-15T14:55:01;5.80;;;3.60;;
1613;SDS011;800;48.824;9.346;2022-11-15T14:57:28;7.63;;;4.27;;
1613;SDS011;800;48.824;9.346;2022-11-15T14:59:54;10.00;;;4.83;;
1613;SDS011;800;48.824;9.346;2022-11-15T15:02:21;5.20;;;4.23;;
1613;SDS011;800;48.824;9.346;2022-11-15T15:04:48;6.47;;;5.70;;
1613;SDS011;800;48.824;9.346;2022-11-15T15:07:15;7.03;;;4.57;;
1613;SDS011;800;48.824;9.346;2022-11-15T15:09:41;5.93;;;4.73;;
1613;SDS011;800;48.824;9.346;2022-11-15T15:12:13;4.27;;;3.83;;
1613;SDS011;800;48.824;9.346;2022-11-15T15:14:44;4.23;;;3.80;;
1613;SDS011;800;48.824;9.346;2022-11-15T15:17:10;6.80;;;3.90;;
1613;SDS011;800;48.824;9.346;2022-11-15T15:19:36;7.23;;;4.17;;
1613;SDS011;800;48.824;9.346;2022-11-15T15:22:02;5.20;;;3.73;;
1613;SDS011;800;48.824;9.346;2022-11-15T15:24:27;5.20;;;4.80;;
1613;SDS011;800;48.824;9.346;2022-11-15T15:26:53;6.23;;;4.03;;
1613;SDS011;800;48.824;9.346;2022-11-15T15:29:19;4.87;;;4.40;;
1613;SDS011;800;48.824;9.346;2022-11-15T15:31:44;6.50;;;4.73;;
1613;SDS011;800;48.824;9.346;2022-11-15T15:34:10;6.40;;;4.63;;
1613;SDS011;800;48.824;9.346;2022-11-15T15:36:35;7.60;;;5.20;;
1613;SDS011;800;48.824;9.346;2022-11-15T15:39:01;7.33;;;6.50;;
1613;SDS011;800;48.824;9.346;2022-11-15T15:41:27;10.90;;;8.63;;
1613;SDS011;800;48.824;9.346;2022-11-15T15:43:53;10.93;;;8.50;;
1613;SDS011;800;48.824;9.346;2022-11-15T15:46:18;14.40;;;10.90;;
1613;SDS011;800;48.824;9.346;2022-11-15T15:48:44;8.63;;;5.90;;
1613;SDS011;800;48.824;9.346;2022-11-15T15:51:10;7.13;;;6.03;;
1613;SDS011;800;48.824;9.346;2022-11-15T15:53:36;8.57;;;6.50;;
1613;SDS011;800;48.824;9.346;2022-11-15T15:56:02;7.23;;;6.50;;
1613;SDS011;800;48.824;9.346;2022-11-15T15:58:28;6.37;;;5.53;;
1613;SDS011;800;48.824;9.346;2022-11-15T16:00:54;6.70;;;4.07;;
1613;SDS011;800;48.824;9.346;2022-11-15T16:03:19;5.23;;;3.40;;
1613;SDS011;800;48.824;9.346;2022-11-15T16:05:45;3.97;;;3.33;;
1613;SDS011;800;48.824;9.346;2022-11-15T16:08:18;5.67;;;3.63;;
1613;SDS011;800;48.824;9.346;2022-11-15T16:10:46;5.07;;;4.07;;
1613;SDS011;800;48.824;9.346;2022-11-15T16:13:12;3.90;;;3.50;;
1613;SDS011;800;48.824;9.346;2022-11-15T16:15:37;7.30;;;3.83;;
1613;SDS011;800;48.824;9.346;2022-11-15T16:18:03;3.63;;;3.33;;
1613;SDS011;800;48.824;9.346;2022-11-15T16:20:40;4.10;;;3.30;;
1613;SDS011;800;48.824;9.346;2022-11-15T16:23:15;4.10;;;3.37;;
1613;SDS011;800;48.824;9.346;2022-11-15T16:25:55;11.37;;;3.80;;
1613;SDS011;800;48.824;9.346;2022-11-15T16:31:07;4.13;;;3.50;;
1613;SDS011;800;48.824;9.346;2022-11-15T16:33:34;6.10;;;3.87;;
1613;SDS011;800;48.824;9.346;2022-11-15T16:36:01;4.93;;;3.07;;
1613;SDS011;800;48.824;9.346;2022-11-15T16:38:27;3.70;;;3.13;;
1613;SDS011;800;48.824;9.346;2022-11-15T16:40:52;3.43;;;3.13;;
1613;SDS011;800;48.824;9.346;2022-11-15T16:43:18;4.10;;;3.70;;
1613;SDS011;800;48.824;9.346;2022-11-15T16:45:44;4.47;;;3.80;;
1613;SDS011;800;48.824;9.346;2022-11-15T16:48:22;8.37;;;4.30;;
1613;SDS011;800;48.824;9.346;2022-11-15T16:50:49;7.77;;;4.50;;
1613;SDS011;800;48.824;9.346;2022-11-15T16:53:18;4.60;;;4.10;;
1613;SDS011;800;48.824;9.346;2022-11-15T16:55:44;4.53;;;3.90;;
1613;SDS011;800;48.824;9.346;2022-11-15T16:58:09;4.80;;;3.23;;
1613;SDS011;800;48.824;9.346;2022-11-15T17:00:35;3.60;;;3.00;;
1613;SDS011;800;48.824;9.346;2022-11-15T17:03:00;3.07;;;2.83;;
1613;SDS011;800;48.824;9.346;2022-11-15T17:05:27;3.30;;;3.00;;
1613;SDS011;800;48.824;9.346;2022-11-15T17:07:53;5.00;;;2.90;;
1613;SDS011;800;48.824;9.346;2022-11-15T17:10:20;4.90;;;3.53;;
1613;SDS011;800;48.824;9.346;2022-11-15T17:12:50;3.73;;;3.20;;
1613;SDS011;800;48.824;9.346;2022-11-15T17:15:16;6.90;;;5.07;;
1613;SDS011;800;48.824;9.346;2022-11-15T17:17:42;7.57;;;4.70;;
1613;SDS011;800;48.824;9.346;2022-11-15T17:20:17;5.67;;;3.97;;
1613;SDS011;800;48.824;9.346;2022-11-15T17:22:44;6.80;;;4.67;;
1613;SDS011;800;48.824;9.346;2022-11-15T17:25:11;8.80;;;4.40;;
1613;SDS011;800;48.824;9.346;2022-11-15T17:27:37;5.13;;;4.50;;
1613;SDS011;800;48.824;9.346;2022-11-15T17:30:03;5.60;;;4.90;;
1613;SDS011;800;48.824;9.346;2022-11-15T17:32:29;5.30;;;4.70;;
1613;SDS011;800;48.824;9.346;2022-11-15T17:34:55;5.97;;;4.10;;
1613;SDS011;800;48.824;9.346;2022-11-15T17:37:20;4.47;;;4.07;;
1613;SDS011;800;48.824;9.346;2022-11-15T17:39:46;9.07;;;3.90;;
1613;SDS011;800;48.824;9.346;2022-11-15T17:42:12;9.80;;;5.20;;
1613;SDS011;800;48.824;9.346;2022-11-15T17:44:37;5.10;;;4.60;;
1613;SDS011;800;48.824;9.346;2022-11-15T17:47:03;5.87;;;5.17;;
1613;SDS011;800;48.824;9.346;2022-11-15T17:49:28;7.50;;;5.40;;
1613;SDS011;800;48.824;9.346;2022-11-15T17:51:54;7.00;;;5.27;;